Time;durP1;ratioP1;P1;durP2;ratioP2;P2;SDS_P1;SDS_P2;PMS_P1;PMS_P2;Temp;Humidity;BMP_temperature;BMP_pressure;BME280_temperature;BME280_humidity;BME280_pressure;Samples;Min_cycle;Max_cycle;Signal;HPM_P1;HPM_P2
2021/12/16 00:03:40;;;;;;;17.63;12.07;;;;;;;3.55;100.00;100326.03;5070811;28;20207;-67
2021/12/16 00:09:00;;;;;;;16.70;11.63;;;;;;;3.48;100.00;100329.31;5033282;28;20244;-67
2021/12/16 00:19:30;;;;;;;14.87;11.47;;;;;;;3.47;100.00;100337.72;5070863;28;20287;-67
2021/12/16 00:33:58;;;;;;;20.53;13.37;;;;;;;3.30;100.00;100334.97;5069760;28;20196;-67
2021/12/16 00:36:24;;;;;;;18.47;13.83;;;;;;;3.28;100.00;100335.78;5070640;28;20204;-67
2021/12/16 00:38:51;;;;;;;20.87;13.43;;;;;;;3.27;100.00;100341.66;5071828;28;20655;-67
2021/12/16 00:41:18;;;;;;;19.43;13.40;;;;;;;3.30;100.00;100344.25;5071102;28;20226;-67
2021/12/16 00:43:51;;;;;;;22.30;13.90;;;;;;;3.35;100.00;100340.09;5071751;28;20583;-66
2021/12/16 00:46:33;;;;;;;21.23;13.20;;;;;;;3.36;100.00;100335.03;5070794;28;20207;-67
2021/12/16 00:49:17;;;;;;;17.30;12.23;;;;;;;3.41;100.00;100332.59;5070231;28;20207;-67
2021/12/16 00:54:29;;;;;;;21.13;13.60;;;;;;;3.36;100.00;100339.28;5071294;28;20198;-67
2021/12/16 00:57:01;;;;;;;26.20;13.50;;;;;;;3.38;100.00;100328.34;5071757;28;20196;-67
2021/12/16 00:59:33;;;;;;;20.43;12.73;;;;;;;3.37;100.00;100328.31;5071181;28;20219;-67
2021/12/16 01:02:15;;;;;;;19.97;13.80;;;;;;;3.36;100.00;100331.69;5071365;28;20208;-67
2021/12/16 01:05:07;;;;;;;18.27;12.57;;;;;;;3.31;100.00;100330.75;5071027;28;20680;-67
2021/12/16 01:07:56;;;;;;;16.47;13.00;;;;;;;3.31;100.00;100325.69;5070963;28;20196;-67
2021/12/16 01:35:51;;;;;;;22.73;13.53;;;;;;;2.98;100.00;100300.72;5001501;28;20316;-67
2021/12/16 01:38:56;;;;;;;20.90;13.13;;;;;;;2.99;100.00;100308.34;5048928;28;20202;-67
2021/12/16 01:42:04;;;;;;;22.63;13.70;;;;;;;3.01;100.00;100306.69;5074778;28;20211;-67
2021/12/16 01:47:25;;;;;;;19.20;11.87;;;;;;;3.01;100.00;100303.31;5074282;28;20207;-67
2021/12/16 01:49:59;;;;;;;14.60;11.07;;;;;;;2.96;100.00;100298.19;5074235;28;20200;-67
2021/12/16 01:55:17;;;;;;;18.20;12.23;;;;;;;2.94;100.00;100289.69;5073934;28;20283;-67
2021/12/16 01:57:49;;;;;;;18.23;12.13;;;;;;;3.00;100.00;100302.47;5074450;28;20199;-67
2021/12/16 02:00:26;;;;;;;21.47;12.97;;;;;;;2.97;100.00;100299.03;5074813;28;20691;-67
2021/12/16 02:02:59;;;;;;;17.73;11.97;;;;;;;2.97;100.00;100289.75;5073948;28;20279;-67
2021/12/16 02:05:39;;;;;;;22.40;12.20;;;;;;;2.95;100.00;100296.47;5074577;28;20208;-67
2021/12/16 02:08:24;;;;;;;20.17;12.43;;;;;;;2.93;100.00;100295.63;5074474;28;20265;-67
2021/12/16 02:11:13;;;;;;;16.97;11.40;;;;;;;2.78;100.00;100267.50;5074269;28;20286;-67
2021/12/16 02:27:22;;;;;;;17.77;12.07;;;;;;;2.87;100.00;100277.81;5074496;28;20196;-67
2021/12/16 02:27:51;;;;;;;18.77;11.07;;;;;;;2.84;100.00;100290.41;5069339;28;20219;-67
2021/12/16 02:31:12;;;;;;;20.17;13.20;;;;;;;2.79;100.00;100299.59;5074262;28;20196;-67
2021/12/16 02:36:29;;;;;;;21.97;12.37;;;;;;;2.73;100.00;100284.31;5011644;28;20281;-67
2021/12/16 02:39:02;;;;;;;22.10;12.83;;;;;;;2.70;100.00;100281.75;5061594;28;20203;-67
2021/12/16 02:41:29;;;;;;;19.03;11.80;;;;;;;2.71;100.00;100280.94;5073914;28;20652;-67
2021/12/16 02:49:23;;;;;;;22.07;12.87;;;;;;;2.65;100.00;100275.75;5073049;28;20329;-67
2021/12/16 02:51:50;;;;;;;16.97;10.97;;;;;;;2.67;100.00;100279.16;5073741;28;20200;-67
2021/12/16 02:54:18;;;;;;;19.30;11.23;;;;;;;2.59;100.00;100276.50;5073699;28;20668;-67
2021/12/16 02:56:45;;;;;;;17.67;12.57;;;;;;;2.62;100.00;100289.22;5073740;28;20200;-67
2021/12/16 02:59:15;;;;;;;18.97;12.30;;;;;;;2.59;100.00;100296.75;5073425;28;20206;-67
2021/12/16 03:01:45;;;;;;;19.37;11.67;;;;;;;2.61;100.00;100287.53;5073499;28;20311;-67
2021/12/16 03:04:16;;;;;;;18.83;11.87;;;;;;;2.51;100.00;100282.28;5073270;28;20192;-67
2021/12/16 03:06:47;;;;;;;20.30;13.13;;;;;;;2.60;100.00;100295.09;5073330;28;20192;-67
2021/12/16 03:09:17;;;;;;;18.93;12.20;;;;;;;2.57;100.00;100289.97;5073486;28;20300;-67
2021/12/16 03:12:05;;;;;;;20.27;13.57;;;;;;;2.53;100.00;100290.75;5073360;28;20716;-67
2021/12/16 03:14:38;;;;;;;19.13;13.23;;;;;;;2.47;100.00;100293.19;5073341;28;20250;-67
2021/12/16 03:17:15;;;;;;;18.83;12.77;;;;;;;2.41;100.00;100283.81;5070226;28;20655;-67
2021/12/16 03:19:57;;;;;;;19.53;13.23;;;;;;;2.44;100.00;100290.59;5073404;28;20722;-67
2021/12/16 03:22:45;;;;;;;21.30;12.63;;;;;;;2.44;100.00;100298.19;5073106;28;20222;-67
2021/12/16 03:25:21;;;;;;;19.77;11.50;;;;;;;2.46;100.00;100304.13;5070543;28;20207;-66
2021/12/16 03:36:26;;;;;;;21.43;13.73;;;;;;;2.40;100.00;100304.00;5050175;28;20203;-67
2021/12/16 03:39:10;;;;;;;21.37;12.43;;;;;;;2.40;100.00;100298.97;5072354;28;20630;-67
2021/12/16 03:41:38;;;;;;;21.33;12.30;;;;;;;2.38;100.00;100308.22;5072272;28;20226;-67
2021/12/16 03:44:10;;;;;;;21.70;13.83;;;;;;;2.35;100.00;100310.69;5071565;28;20596;-67
2021/12/16 03:46:41;;;;;;;18.00;11.57;;;;;;;2.33;100.00;100302.19;5072409;28;20199;-67
2021/12/16 03:49:11;;;;;;;20.37;12.30;;;;;;;2.28;100.00;100308.88;5072424;28;20215;-67
2021/12/16 03:51:41;;;;;;;18.47;12.13;;;;;;;2.26;100.00;100295.38;5072394;28;20196;-67
2021/12/16 03:54:12;;;;;;;19.77;11.67;;;;;;;2.29;100.00;100306.38;5072347;28;20203;-67
2021/12/16 03:56:40;;;;;;;18.70;11.50;;;;;;;2.33;100.00;100299.69;5072266;28;20204;-67
2021/12/16 03:59:11;;;;;;;16.97;11.13;;;;;;;2.30;100.00;100292.03;5072267;28;20196;-67
2021/12/16 04:01:38;;;;;;;18.97;11.47;;;;;;;2.20;100.00;100285.13;5072437;28;20742;-67
2021/12/16 04:04:06;;;;;;;19.83;11.80;;;;;;;2.28;100.00;100304.69;5072546;28;20204;-67
2021/12/16 04:06:36;;;;;;;20.90;10.93;;;;;;;2.28;100.00;100303.81;5072192;28;20192;-67
2021/12/16 04:09:04;;;;;;;15.83;11.40;;;;;;;2.25;100.00;100308.81;5069807;28;20196;-67
2021/12/16 04:11:41;;;;;;;14.30;10.63;;;;;;;2.23;100.00;100305.44;5072136;28;20200;-66
2021/12/16 04:14:11;;;;;;;20.77;12.60;;;;;;;2.23;100.00;100307.97;5066485;28;20269;-67
2021/12/16 04:16:42;;;;;;;16.37;10.97;;;;;;;2.31;100.00;100306.41;5071969;28;20579;-67
2021/12/16 04:19:12;;;;;;;18.87;11.60;;;;;;;2.30;100.00;100302.16;5072028;28;20660;-67
2021/12/16 04:21:40;;;;;;;16.10;10.77;;;;;;;2.32;100.00;100311.50;5071794;28;20212;-67
2021/12/16 04:24:08;;;;;;;13.37;10.63;;;;;;;2.32;100.00;100310.63;5071629;28;20287;-67
2021/12/16 04:26:35;;;;;;;14.03;10.57;;;;;;;2.24;100.00;100291.94;5071815;28;20651;-67
2021/12/16 04:29:04;;;;;;;16.20;9.63;;;;;;;2.31;100.00;100308.94;5070991;28;20208;-67
2021/12/16 04:31:33;;;;;;;19.77;10.37;;;;;;;2.34;100.00;100308.97;5072048;28;20196;-67
2021/12/16 04:34:00;;;;;;;16.70;9.73;;;;;;;2.29;100.00;100310.59;5071674;28;20204;-67
2021/12/16 04:36:27;;;;;;;14.37;10.00;;;;;;;2.30;100.00;100302.16;5071717;28;20196;-67
2021/12/16 04:38:54;;;;;;;30.33;18.17;;;;;;;2.31;100.00;100304.72;5070798;28;20204;-67
2021/12/16 04:41:21;;;;;;;17.43;11.73;;;;;;;2.36;100.00;100295.53;5070407;28;20255;-67
2021/12/16 04:43:52;;;;;;;15.20;10.00;;;;;;;2.27;100.00;100308.03;5071509;28;20676;-67
2021/12/16 04:46:23;;;;;;;12.67;9.93;;;;;;;2.26;100.00;100295.38;5069241;28;20206;-67
2021/12/16 04:48:55;;;;;;;16.43;10.50;;;;;;;2.25;100.00;100303.75;5070495;28;20206;-67
2021/12/16 04:51:26;;;;;;;12.30;9.33;;;;;;;2.26;100.00;100300.41;5071770;28;20230;-67
2021/12/16 04:53:53;;;;;;;16.00;10.10;;;;;;;2.23;100.00;100286.00;5071387;28;20565;-67
2021/12/16 04:56:21;;;;;;;13.23;9.07;;;;;;;2.36;100.00;100307.34;5071201;28;20199;-67
2021/12/16 04:58:49;;;;;;;13.57;9.83;;;;;;;2.34;100.00;100307.31;5071135;28;20203;-67
2021/12/16 05:01:17;;;;;;;12.93;10.43;;;;;;;2.31;100.00;100303.88;5070562;28;20224;-67
2021/12/16 05:03:44;;;;;;;13.47;9.57;;;;;;;2.18;100.00;100277.50;5071236;28;20245;-67
2021/12/16 05:06:13;;;;;;;14.60;9.70;;;;;;;2.40;100.00;100309.09;5070933;28;20192;-67
2021/12/16 05:08:40;;;;;;;15.80;9.93;;;;;;;2.41;100.00;100313.31;5071331;28;20204;-67
2021/12/16 05:11:12;;;;;;;12.13;9.10;;;;;;;2.40;100.00;100316.66;5070889;28;20199;-67
2021/12/16 05:13:39;;;;;;;11.77;10.23;;;;;;;2.45;100.00;100317.63;5071390;28;20291;-67
2021/12/16 05:16:07;;;;;;;11.20;9.13;;;;;;;2.46;100.00;100320.16;5070925;28;20195;-67
2021/12/16 05:18:37;;;;;;;15.37;10.60;;;;;;;2.45;100.00;100315.09;5071094;28;20203;-67
2021/12/16 05:21:06;;;;;;;14.63;9.70;;;;;;;2.49;100.00;100316.81;5070928;28;20773;-67
2021/12/16 05:26:21;;;;;;;12.80;9.73;;;;;;;2.46;100.00;100325.22;5070852;28;20218;-67
2021/12/16 05:28:52;;;;;;;12.40;8.73;;;;;;;2.44;100.00;100326.88;5070929;28;20218;-67
2021/12/16 05:31:21;;;;;;;13.77;9.60;;;;;;;2.42;100.00;100327.69;5071067;28;20589;-67
2021/12/16 05:33:49;;;;;;;16.07;10.90;;;;;;;2.43;100.00;100324.31;5071097;28;20675;-67
2021/12/16 05:36:16;;;;;;;13.60;9.43;;;;;;;2.45;100.00;100328.59;5070210;28;20199;-67
2021/12/16 05:38:44;;;;;;;12.17;10.03;;;;;;;2.36;100.00;100323.34;5070361;28;20591;-67
2021/12/16 05:41:16;;;;;;;16.70;10.37;;;;;;;2.33;100.00;100317.38;5070882;28;20312;-67
2021/12/16 05:43:43;;;;;;;14.17;10.10;;;;;;;2.31;100.00;100324.97;5068851;28;20721;-67
2021/12/16 05:46:11;;;;;;;16.50;10.80;;;;;;;2.28;100.00;100324.91;5070196;28;20220;-66
2021/12/16 05:48:41;;;;;;;15.07;9.50;;;;;;;2.27;100.00;100322.34;5068806;28;20192;-67
2021/12/16 05:51:11;;;;;;;16.70;10.83;;;;;;;2.26;100.00;100324.03;5068693;28;20210;-66
2021/12/16 05:53:39;;;;;;;13.10;10.90;;;;;;;2.17;100.00;100306.16;5070144;28;20679;-67
2021/12/16 05:56:07;;;;;;;12.90;9.97;;;;;;;2.19;100.00;100323.91;5071323;28;20548;-67
2021/12/16 05:58:36;;;;;;;13.83;10.07;;;;;;;2.20;100.00;100336.56;5070858;28;20572;-67
2021/12/16 06:01:07;;;;;;;11.87;9.93;;;;;;;2.21;100.00;100338.28;5070728;28;20222;-67
2021/12/16 06:03:34;;;;;;;14.70;10.03;;;;;;;2.13;100.00;100325.47;5070712;28;20206;-67
2021/12/16 06:06:02;;;;;;;13.33;10.03;;;;;;;2.22;100.00;100339.13;5070680;28;20192;-67
2021/12/16 06:08:29;;;;;;;21.40;10.30;;;;;;;2.25;100.00;100332.44;5070820;28;20204;-67
2021/12/16 06:11:17;;;;;;;11.80;9.30;;;;;;;2.26;100.00;100330.78;5070702;28;20732;-67
2021/12/16 06:13:59;;;;;;;11.23;9.53;;;;;;;2.24;100.00;100332.41;5071729;28;20287;-67
2021/12/16 06:27:43;;;;;;;13.73;9.67;;;;;;;2.40;100.00;100335.25;4997425;28;20253;-67
2021/12/16 06:30:15;;;;;;;13.17;9.13;;;;;;;2.44;100.00;100341.22;5046012;28;20199;-67
2021/12/16 06:32:43;;;;;;;13.77;9.40;;;;;;;2.36;100.00;100332.66;5072989;28;20196;-67
2021/12/16 06:35:11;;;;;;;11.73;9.17;;;;;;;2.46;100.00;100349.66;5073366;28;20580;-67
2021/12/16 06:37:39;;;;;;;12.07;9.83;;;;;;;2.39;100.00;100337.75;5073415;28;20588;-67
2021/12/16 06:40:09;;;;;;;11.03;8.57;;;;;;;2.46;100.00;100350.53;5073873;28;20206;-67
2021/12/16 06:42:39;;;;;;;15.63;10.60;;;;;;;2.53;100.00;100343.88;5073411;28;20223;-67
2021/12/16 06:45:11;;;;;;;17.70;9.90;;;;;;;2.62;100.00;100344.03;5072399;28;20661;-67
2021/12/16 06:47:44;;;;;;;14.43;9.93;;;;;;;2.65;100.00;100349.16;5073830;28;20594;-67
2021/12/16 06:50:22;;;;;;;13.87;9.83;;;;;;;2.71;100.00;100346.75;5073124;28;20192;-67
2021/12/16 06:52:50;;;;;;;26.40;15.77;;;;;;;2.70;100.00;100339.97;5067484;28;20203;-67
2021/12/16 06:55:24;;;;;;;19.20;13.30;;;;;;;2.80;100.00;100357.03;5071952;28;20316;-67
2021/12/16 06:57:55;;;;;;;25.03;14.93;;;;;;;2.84;100.00;100356.25;5070650;28;20204;-67
2021/12/16 07:00:31;;;;;;;15.47;12.80;;;;;;;2.91;100.00;100360.56;5070719;28;20203;-67
2021/12/16 07:03:02;;;;;;;16.20;11.53;;;;;;;2.87;100.00;100343.63;5069194;28;20220;-67
2021/12/16 07:05:31;;;;;;;11.63;9.93;;;;;;;2.89;100.00;100341.97;5070040;28;20282;-60
2021/12/16 07:07:59;;;;;;;13.70;9.57;;;;;;;3.06;100.00;100350.69;5069094;28;20198;-60
2021/12/16 07:10:29;;;;;;;15.87;10.20;;;;;;;3.10;100.00;100354.94;5068938;28;20211;-59
2021/12/16 07:12:58;;;;;;;14.80;10.03;;;;;;;3.12;100.00;100355.84;5064173;28;20196;-59
2021/12/16 07:15:28;;;;;;;13.77;10.50;;;;;;;3.22;100.00;100361.91;5066704;28;20238;-58
2021/12/16 07:17:57;;;;;;;17.53;10.30;;;;;;;3.25;100.00;100356.00;5068214;28;20196;-58
2021/12/16 07:20:28;;;;;;;20.47;10.67;;;;;;;3.31;100.00;100358.63;5067499;28;20547;-58
2021/12/16 07:22:56;;;;;;;17.33;12.43;;;;;;;3.40;100.00;100368.88;5068070;28;20526;-68
2021/12/16 07:25:23;;;;;;;16.13;10.83;;;;;;;3.40;100.00;100366.34;5068354;28;20210;-67
2021/12/16 07:27:50;;;;;;;13.03;9.70;;;;;;;3.45;100.00;100372.38;5070240;28;20652;-67
2021/12/16 07:30:19;;;;;;;17.87;10.83;;;;;;;3.49;100.00;100367.34;5069727;28;20211;-68
2021/12/16 07:32:47;;;;;;;19.17;11.30;;;;;;;3.59;100.00;100368.31;5069530;28;20206;-68
2021/12/16 07:35:17;;;;;;;15.63;9.70;;;;;;;3.64;100.00;100371.78;5071055;28;20204;-67
2021/12/16 07:37:45;;;;;;;14.87;9.60;;;;;;;3.68;100.00;100368.47;5070191;28;20204;-68
2021/12/16 07:40:16;;;;;;;17.30;11.10;;;;;;;3.74;100.00;100376.13;5068833;28;20200;-68
2021/12/16 07:42:48;;;;;;;12.17;9.77;;;;;;;3.80;100.00;100363.53;5070503;28;20219;-68
2021/12/16 07:45:18;;;;;;;19.20;10.93;;;;;;;3.86;100.00;100363.59;5069849;28;20670;-67
2021/12/16 07:47:46;;;;;;;15.33;12.50;;;;;;;3.90;100.00;100365.34;5066137;28;20207;-67
2021/12/16 07:50:13;;;;;;;13.77;10.07;;;;;;;4.01;100.00;100363.78;5067441;28;20226;-68
2021/12/16 07:52:41;;;;;;;15.60;10.17;;;;;;;4.12;100.00;100364.75;5066668;28;20204;-67
2021/12/16 07:55:11;;;;;;;14.47;10.50;;;;;;;4.26;100.00;100358.97;5066757;28;20720;-67
2021/12/16 07:57:39;;;;;;;14.77;10.20;;;;;;;4.28;100.00;100364.91;5068144;28;20208;-67
2021/12/16 08:00:11;;;;;;;14.70;11.53;;;;;;;4.38;100.00;100354.88;5070172;28;20733;-68
2021/12/16 08:02:38;;;;;;;15.20;11.00;;;;;;;4.50;100.00;100365.16;5070522;28;20223;-67
2021/12/16 08:05:06;;;;;;;15.83;10.70;;;;;;;4.56;100.00;100359.25;5071704;28;20192;-67
2021/12/16 08:07:33;;;;;;;12.13;10.30;;;;;;;4.67;100.00;100360.22;5071927;28;20214;-66
2021/12/16 08:10:00;;;;;;;13.40;9.83;;;;;;;4.74;100.00;100351.81;5069158;28;20215;-68
2021/12/16 08:12:28;;;;;;;11.93;9.53;;;;;;;4.86;100.00;100354.47;5068385;28;20184;-67
2021/12/16 08:14:55;;;;;;;12.10;9.80;;;;;;;4.90;100.00;100351.13;5070896;28;20218;-67
2021/12/16 08:17:22;;;;;;;11.27;9.57;;;;;;;4.99;100.00;100351.19;5071080;28;20200;-67
2021/12/16 08:19:49;;;;;;;15.57;9.60;;;;;;;4.97;100.00;100342.72;5070658;28;20691;-67
2021/12/16 08:22:16;;;;;;;13.17;9.37;;;;;;;5.14;100.00;100353.81;5065174;28;20718;-67
2021/12/16 08:24:45;;;;;;;15.27;9.10;;;;;;;5.16;100.00;100354.69;5069282;28;20215;-67
2021/12/16 08:27:13;;;;;;;13.70;10.83;;;;;;;5.21;100.00;100345.41;5070133;28;20696;-67
2021/12/16 08:29:41;;;;;;;13.10;9.90;;;;;;;5.30;100.00;100353.06;5070274;28;20204;-67
2021/12/16 08:32:10;;;;;;;15.40;10.30;;;;;;;5.34;100.00;100337.84;5070170;28;20207;-66
2021/12/16 08:34:39;;;;;;;13.07;9.57;;;;;;;5.37;100.00;100337.84;5070542;28;20200;-67
2021/12/16 08:37:07;;;;;;;11.10;9.03;;;;;;;5.55;100.00;100343.06;5070490;28;20200;-67
2021/12/16 08:39:35;;;;;;;11.37;10.27;;;;;;;5.63;100.00;100346.47;5070416;28;20196;-67
2021/12/16 08:42:04;;;;;;;11.63;9.53;;;;;;;5.70;100.00;100353.31;5068675;28;20255;-67
2021/12/16 08:44:31;;;;;;;11.60;8.20;;;;;;;5.75;100.00;100346.56;5064843;28;20232;-67
2021/12/16 08:47:05;;;;;;;13.67;8.50;;;;;;;5.80;100.00;100344.88;5069880;28;20210;-66
2021/12/16 08:49:32;;;;;;;9.30;8.33;;;;;;;5.76;100.00;100338.06;5070745;28;20191;-67
2021/12/16 08:52:04;;;;;;;8.70;7.23;;;;;;;5.69;100.00;100337.19;5069427;28;20196;-66
2021/12/16 08:54:31;;;;;;;11.03;7.57;;;;;;;5.61;100.00;100340.53;5066444;28;20192;-67
2021/12/16 08:56:58;;;;;;;7.20;6.50;;;;;;;5.57;100.00;100331.19;5070217;28;20215;-67
2021/12/16 08:59:26;;;;;;;7.93;7.23;;;;;;;5.63;100.00;100339.69;5070138;28;20196;-67
2021/12/16 09:01:56;;;;;;;7.63;7.00;;;;;;;5.63;100.00;100341.38;5070109;28;20603;-67
2021/12/16 09:04:25;;;;;;;13.17;7.33;;;;;;;5.71;100.00;100347.38;5069095;28;20216;-67
2021/12/16 09:06:54;;;;;;;8.10;7.40;;;;;;;5.81;100.00;100342.34;5069668;28;20278;-67
2021/12/16 09:09:22;;;;;;;7.07;6.37;;;;;;;5.90;100.00;100331.38;5069302;28;20690;-67
2021/12/16 09:12:03;;;;;;;7.17;6.63;;;;;;;5.96;100.00;100325.44;5069882;28;20195;-67
2021/12/16 09:14:31;;;;;;;6.30;5.80;;;;;;;6.00;100.00;100333.09;5065991;28;20313;-66
2021/12/16 09:16:58;;;;;;;7.13;6.43;;;;;;;6.06;100.00;100337.34;5070421;28;20195;-66
2021/12/16 09:19:34;;;;;;;8.10;5.30;;;;;;;6.10;100.00;100329.75;5069049;28;20678;-66
2021/12/16 09:22:01;;;;;;;7.73;5.77;;;;;;;6.19;100.00;100319.59;5068263;28;20214;-65
2021/12/16 09:24:28;;;;;;;7.10;6.50;;;;;;;6.24;100.00;100312.78;5069172;28;20585;-66
2021/12/16 09:26:55;;;;;;;6.67;6.20;;;;;;;6.24;100.00;100317.03;5069737;28;20223;-66
2021/12/16 09:29:22;;;;;;;6.40;5.87;;;;;;;6.29;100.00;100321.31;5069328;28;20200;-66
2021/12/16 09:31:49;;;;;;;5.77;5.37;;;;;;;6.33;100.00;100320.44;5068422;28;20199;-66
2021/12/16 09:34:16;;;;;;;6.10;5.70;;;;;;;6.41;99.41;100324.69;5067129;28;20204;-66
2021/12/16 09:36:45;;;;;;;7.73;7.03;;;;;;;6.44;98.85;100314.50;5067446;28;20229;-67
2021/12/16 09:39:17;;;;;;;9.07;8.00;;;;;;;6.51;100.00;100308.59;5067718;28;20557;-67
2021/12/16 09:41:48;;;;;;;7.83;7.03;;;;;;;6.56;100.00;100304.34;5064471;28;20212;-67
2021/12/16 09:44:16;;;;;;;6.87;6.27;;;;;;;6.59;99.15;100299.25;5065833;28;20655;-67
2021/12/16 09:46:45;;;;;;;10.77;8.70;;;;;;;6.65;99.62;100299.25;5066845;28;20200;-66
2021/12/16 09:49:12;;;;;;;7.63;6.83;;;;;;;6.64;98.87;100300.09;5071052;28;20682;-66
2021/12/16 09:51:42;;;;;;;12.53;8.27;;;;;;;6.61;98.37;100277.16;5072057;28;20659;-66
2021/12/16 09:54:14;;;;;;;9.27;8.30;;;;;;;6.90;99.47;100289.88;5071499;28;20204;-66
2021/12/16 09:56:43;;;;;;;9.27;7.53;;;;;;;7.04;98.16;100288.19;5071566;28;20208;-67
2021/12/16 09:59:13;;;;;;;7.43;6.83;;;;;;;7.12;97.40;100287.31;5072190;28;20206;-66
2021/12/16 10:01:40;;;;;;;7.27;6.47;;;;;;;7.17;94.94;100289.84;5072198;28;20196;-67
2021/12/16 10:04:13;;;;;;;7.03;6.43;;;;;;;7.27;97.35;100287.25;5069050;28;20204;-66
2021/12/16 10:06:42;;;;;;;11.50;6.00;;;;;;;7.27;96.22;100282.16;5071227;28;20226;-67
2021/12/16 10:09:11;;;;;;;6.70;6.10;;;;;;;7.32;96.75;100275.34;5072978;28;20204;-67
2021/12/16 10:11:43;;;;;;;11.70;7.13;;;;;;;7.47;97.58;100274.44;5069583;28;20884;-66
2021/12/16 10:14:30;;;;;;;7.70;6.67;;;;;;;7.47;93.71;100278.69;5070291;28;20215;-67
2021/12/16 10:19:43;;;;;;;5.83;5.33;;;;;;;7.35;93.00;100254.09;5068285;28;20247;-67
2021/12/16 10:22:18;;;;;;;5.47;5.07;;;;;;;7.43;92.92;100259.16;5069997;28;20215;-67
2021/12/16 10:24:47;;;;;;;6.20;5.70;;;;;;;7.47;94.11;100259.13;5069420;28;20203;-67
2021/12/16 10:27:16;;;;;;;8.90;8.10;;;;;;;7.46;94.73;100248.94;5069115;28;20204;-67
2021/12/16 10:29:47;;;;;;;8.83;8.03;;;;;;;7.57;92.70;100245.50;5069566;28;20295;-67
2021/12/16 10:32:49;;;;;;;6.87;6.27;;;;;;;7.67;93.82;100242.03;5070181;28;20200;-67
2021/12/16 10:35:21;;;;;;;5.65;5.25;;;;;;;7.74;94.52;100246.25;5008068;28;20240;-67
2021/12/16 10:37:53;;;;;;;5.77;5.37;;;;;;;7.71;91.55;100238.63;5005073;28;20222;-67
2021/12/16 10:40:36;;;;;;;6.63;5.90;;;;;;;7.74;92.54;100230.09;5038022;28;20226;-67
2021/12/16 10:43:07;;;;;;;5.63;5.03;;;;;;;7.74;92.84;100227.53;5070812;28;20226;-67
2021/12/16 10:45:39;;;;;;;5.97;5.47;;;;;;;7.77;91.04;100232.63;5068695;28;20635;-66
2021/12/16 10:48:09;;;;;;;6.20;5.67;;;;;;;7.77;91.41;100222.41;5066848;28;20214;-66
2021/12/16 10:50:58;;;;;;;4.80;4.50;;;;;;;7.83;90.64;100222.38;5069043;28;20609;-66
2021/12/16 10:53:57;;;;;;;5.50;5.10;;;;;;;7.91;90.38;100231.72;5069894;28;20193;-66
2021/12/16 10:56:29;;;;;;;5.30;4.90;;;;;;;7.99;92.19;100233.34;5036365;28;20273;-67
2021/12/16 10:58:59;;;;;;;5.83;5.33;;;;;;;8.04;90.64;100229.91;5068139;28;20201;-66
2021/12/16 11:01:51;;;;;;;4.70;4.40;;;;;;;8.11;91.79;100229.00;5068899;28;20069;-67
2021/12/16 11:04:34;;;;;;;3.80;3.60;;;;;;;8.09;89.48;100225.63;5069993;28;20211;-67
2021/12/16 11:07:05;;;;;;;4.90;4.50;;;;;;;8.08;89.83;100223.91;5069213;28;20203;-67
2021/12/16 11:09:48;;;;;;;4.83;4.43;;;;;;;8.08;87.83;100223.91;5069931;28;20211;-67
2021/12/16 11:12:26;;;;;;;5.20;4.70;;;;;;;8.11;90.24;100217.97;5067546;28;20214;-66
2021/12/16 11:14:56;;;;;;;4.70;4.40;;;;;;;8.16;88.97;100222.16;5069447;28;20210;-66
2021/12/16 11:17:26;;;;;;;4.80;4.43;;;;;;;8.20;90.06;100217.88;5069903;28;20208;-67
2021/12/16 11:19:57;;;;;;;5.53;4.90;;;;;;;8.24;89.82;100210.16;5069224;28;20208;-66
2021/12/16 11:22:28;;;;;;;5.20;4.80;;;;;;;8.29;90.50;100207.63;5068581;28;20235;-66
2021/12/16 11:24:55;;;;;;;;;;;;;;;8.27;88.48;100199.09;5069340;28;20458;-66
2021/12/16 11:27:31;;;;;;;4.80;3.70;;;;;;;8.26;88.88;100198.25;5068003;28;20146;-67
2021/12/16 11:30:00;;;;;;;5.05;4.65;;;;;;;8.28;89.86;100190.59;5069013;28;20625;-66
2021/12/16 11:32:43;;;;;;;4.50;4.20;;;;;;;8.23;87.16;100198.28;5067303;28;20214;-68
2021/12/16 11:35:33;;;;;;;5.07;4.70;;;;;;;8.22;88.49;100191.47;5069166;28;20174;-67
2021/12/16 11:38:06;;;;;;;4.75;4.45;;;;;;;8.23;88.49;100208.50;5067963;28;20610;-67
2021/12/16 11:41:14;;;;;;;4.30;4.00;;;;;;;8.22;88.96;100198.28;5066554;28;20197;-67
2021/12/16 11:44:03;;;;;;;4.33;3.93;;;;;;;8.24;86.79;100204.25;5068150;28;20691;-67
2021/12/16 11:46:35;;;;;;;7.57;4.30;;;;;;;8.29;89.18;100208.47;5071294;28;20584;-67
2021/12/16 11:49:06;;;;;;;4.73;4.40;;;;;;;8.31;88.00;100196.53;5072084;28;20196;-66
2021/12/16 11:51:38;;;;;;;5.87;5.50;;;;;;;8.35;87.68;100205.00;5070503;28;20211;-66
2021/12/16 11:54:13;;;;;;;4.13;3.90;;;;;;;8.24;86.38;100205.06;5069322;28;20200;-66
2021/12/16 11:56:44;;;;;;;4.57;4.37;;;;;;;8.20;87.56;100203.41;5068604;28;20204;-67
2021/12/16 11:59:21;;;;;;;5.07;4.67;;;;;;;8.18;86.94;100200.00;5071473;28;20200;-67
2021/12/16 12:01:48;;;;;;;4.57;4.27;;;;;;;8.24;87.87;100204.25;5069919;28;20214;-67
2021/12/16 12:04:16;;;;;;;4.93;4.47;;;;;;;8.09;86.05;100176.25;5067693;28;20217;-66
2021/12/16 12:06:45;;;;;;;4.50;4.30;;;;;;;8.22;87.37;100199.13;5072057;28;20587;-67
2021/12/16 12:09:12;;;;;;;4.50;4.20;;;;;;;8.26;87.07;100198.25;5071165;28;20200;-66
2021/12/16 12:11:43;;;;;;;5.00;4.70;;;;;;;8.32;89.67;100200.78;5071559;28;20204;-66
2021/12/16 12:14:17;;;;;;;5.10;4.80;;;;;;;8.32;86.40;100205.91;5072014;28;20211;-65
2021/12/16 12:16:45;;;;;;;5.80;5.40;;;;;;;8.35;87.79;100200.75;5070329;28;20235;-66
2021/12/16 12:19:15;;;;;;;5.00;4.70;;;;;;;8.30;86.59;100202.47;5069061;28;20208;-66
2021/12/16 12:21:46;;;;;;;4.80;4.23;;;;;;;8.32;86.43;100197.38;5069673;28;20200;-66
2021/12/16 12:24:16;;;;;;;5.57;5.17;;;;;;;8.24;84.99;100184.63;5070741;28;20642;-65
2021/12/16 12:26:52;;;;;;;4.93;4.53;;;;;;;8.28;87.13;100191.44;5070257;28;20299;-66
2021/12/16 12:29:24;;;;;;;4.10;3.83;;;;;;;8.30;88.19;100182.06;5067753;28;20205;-66
2021/12/16 12:31:54;;;;;;;3.90;3.70;;;;;;;8.35;87.28;100187.97;5067864;28;20200;-66
2021/12/16 12:34:23;;;;;;;3.90;3.60;;;;;;;8.26;85.25;100182.94;5069752;28;20203;-66
2021/12/16 12:36:54;;;;;;;4.10;3.90;;;;;;;8.22;85.85;100181.25;5069795;28;20166;-66
2021/12/16 12:39:27;;;;;;;4.77;4.50;;;;;;;8.17;86.16;100177.91;5070237;28;20621;-66
2021/12/16 12:41:54;;;;;;;3.50;3.30;;;;;;;8.18;86.62;100178.72;5069743;28;20238;-67
2021/12/16 12:44:23;;;;;;;3.57;3.37;;;;;;;8.21;87.58;100189.75;5069949;28;20437;-66
2021/12/16 12:46:51;;;;;;;4.37;3.57;;;;;;;8.23;88.00;100190.63;5070453;28;20190;-66
2021/12/16 12:49:25;;;;;;;3.87;3.57;;;;;;;8.04;86.90;100166.09;5069609;28;20219;-67
2021/12/16 12:52:04;;;;;;;4.03;3.73;;;;;;;8.21;87.63;100199.13;5067278;28;20208;-66
2021/12/16 12:54:33;;;;;;;4.03;3.70;;;;;;;8.16;86.39;100188.13;5068549;28;20191;-66
2021/12/16 12:57:17;;;;;;;4.90;4.60;;;;;;;8.21;88.84;100194.88;5070285;28;20548;-66
2021/12/16 12:59:45;;;;;;;3.93;3.73;;;;;;;8.29;87.53;100182.94;5070430;28;20203;-66
2021/12/16 13:02:20;;;;;;;3.73;3.53;;;;;;;8.30;88.03;100186.34;5071021;28;20203;-66
2021/12/16 13:04:52;;;;;;;4.27;3.83;;;;;;;8.26;88.46;100193.16;5070671;28;20301;-66
2021/12/16 13:07:19;;;;;;;6.10;4.13;;;;;;;8.17;88.52;100190.66;5070492;28;20211;-66
2021/12/16 13:09:48;;;;;;;4.27;4.07;;;;;;;8.17;87.67;100193.22;5070014;28;20275;-67
2021/12/16 13:12:34;;;;;;;3.60;3.40;;;;;;;8.08;86.12;100187.34;5065922;28;20706;-68
2021/12/16 13:15:12;;;;;;;3.53;3.33;;;;;;;8.05;87.06;100193.28;5067116;28;20269;-70
2021/12/16 13:23:52;;;;;;;3.77;3.57;;;;;;;7.93;86.47;100190.84;5025321;28;20218;-67
2021/12/16 13:26:33;;;;;;;4.20;4.00;;;;;;;7.95;89.86;100181.44;5060700;28;20609;-67
2021/12/16 13:29:12;;;;;;;4.50;4.30;;;;;;;7.93;90.20;100183.19;5069699;28;20196;-68
2021/12/16 13:31:51;;;;;;;3.80;3.60;;;;;;;7.96;89.73;100178.03;5066589;28;20584;-67